Time;durP1;ratioP1;P1;durP2;ratioP2;P2;SDS_P1;SDS_P2;PMS_P1;PMS_P2;Temp;Humidity;BMP_temperature;BMP_pressure;BME280_temperature;BME280_humidity;BME280_pressure;Samples;Min_cycle;Max_cycle;Signal;HPM_P1;HPM_P2
2022/05/18 00:01:23;;;;;;;78.35;74.43;;;17.40;99.90;;;16.91;100.00;100800.03;4968962;28;20209;-80
2022/05/18 00:03:52;;;;;;;82.63;78.45;;;17.30;99.90;;;16.97;100.00;100809.78;4968123;28;20216;-79
2022/05/18 00:06:20;;;;;;;86.90;82.72;;;17.20;99.90;;;17.09;100.00;100823.00;4968903;28;20241;-79
2022/05/18 00:08:48;;;;;;;88.50;84.15;;;17.20;99.90;;;17.24;100.00;100821.91;4972915;28;20205;-80
2022/05/18 00:11:19;;;;;;;92.55;88.05;;;17.30;99.90;;;17.10;100.00;100805.16;4969259;28;20229;-77
2022/05/18 00:13:51;;;;;;;95.15;91.03;;;17.20;99.90;;;17.00;100.00;100812.41;4965308;28;20584;-78
2022/05/18 00:16:22;;;;;;;95.88;91.18;;;17.20;99.90;;;17.06;100.00;100817.69;4966729;28;20229;-79
2022/05/18 00:18:51;;;;;;;97.78;92.80;;;17.10;99.90;;;17.11;100.00;100818.50;4969672;28;20201;-78
2022/05/18 00:21:19;;;;;;;99.75;94.95;;;17.10;99.90;;;17.06;100.00;100820.34;4969544;28;20209;-78
2022/05/18 00:23:47;;;;;;;86.07;81.68;;;17.10;99.90;;;17.03;100.00;100824.84;4965731;28;20209;-77
2022/05/18 00:26:15;;;;;;;93.53;88.75;;;17.10;99.90;;;17.06;100.00;100836.38;4968698;28;20248;-78
2022/05/18 00:28:43;;;;;;;92.68;88.35;;;17.10;99.90;;;17.01;100.00;100837.34;4969769;28;20675;-81
2022/05/18 00:31:17;;;;;;;84.78;80.63;;;17.10;99.90;;;17.07;100.00;100855.97;4971738;28;20214;-79
2022/05/18 00:33:47;;;;;;;82.28;78.68;;;17.10;99.90;;;16.72;100.00;100843.81;4956265;28;20213;-77
2022/05/18 00:36:14;;;;;;;78.88;75.20;;;17.10;99.90;;;16.74;100.00;100839.34;4970625;28;20225;-79
2022/05/18 00:38:42;;;;;;;80.07;76.55;;;17.10;99.90;;;16.77;100.00;100839.31;4967957;28;20240;-80
2022/05/18 00:41:10;;;;;;;82.03;78.10;;;17.00;99.90;;;16.85;100.00;100849.94;4974653;28;20217;-77
2022/05/18 00:43:43;;;;;;;77.25;74.10;;;17.00;99.90;;;16.92;100.00;100860.56;4957852;28;20212;-77
2022/05/18 00:46:15;;;;;;;68.80;65.72;;;17.00;99.90;;;16.60;100.00;100849.25;4975052;28;20702;-77
2022/05/18 00:48:52;;;;;;;103.45;98.82;;;16.90;99.90;;;16.95;100.00;100873.91;4975035;28;20220;-77
2022/05/18 00:51:38;;;;;;;107.25;102.72;;;16.90;99.90;;;16.69;100.00;100856.31;4974539;28;20209;-79
2022/05/18 00:54:20;;;;;;;107.65;102.43;;;16.80;99.90;;;16.33;100.00;100850.38;4958101;28;20212;-80
2022/05/18 00:56:56;;;;;;;100.32;96.32;;;16.80;99.90;;;16.11;100.00;100852.31;4971618;28;20228;-81
2022/05/18 00:59:37;;;;;;;114.32;109.47;;;16.70;99.90;;;16.11;100.00;100859.44;4974256;28;20209;-77
2022/05/18 01:02:07;;;;;;;109.57;104.45;;;16.60;99.90;;;16.06;100.00;100870.13;4955387;28;20217;-77
2022/05/18 01:04:37;;;;;;;111.28;106.65;;;16.50;99.90;;;16.24;100.00;100874.47;4954195;28;20217;-78
2022/05/18 01:07:14;;;;;;;104.60;100.30;;;16.50;99.90;;;16.39;100.00;100879.69;4961218;28;20241;-78
2022/05/18 01:09:47;;;;;;;103.95;99.22;;;16.50;99.90;;;16.52;100.00;100881.34;4955177;28;20207;-78
2022/05/18 01:12:19;;;;;;;101.80;97.55;;;16.60;99.90;;;16.03;100.00;100869.28;4969492;28;20209;-78
2022/05/18 01:14:57;;;;;;;108.03;103.95;;;16.50;99.90;;;15.68;100.00;100868.56;4962971;28;20213;-78
2022/05/18 01:17:35;;;;;;;117.47;112.80;;;16.40;99.90;;;15.95;100.00;100891.53;4957643;28;20713;-79
2022/05/18 01:20:10;;;;;;;122.55;117.10;;;16.20;99.90;;;16.24;100.00;100917.16;4972300;28;20216;-80
2022/05/18 01:23:06;;;;;;;115.32;110.68;;;16.30;99.90;;;16.48;100.00;100916.09;4970942;28;20213;-78
2022/05/18 01:26:42;;;;;;;98.80;94.57;;;16.30;99.90;;;16.33;100.00;100906.41;4960788;28;20717;-79
2022/05/18 01:29:10;;;;;;;103.20;98.60;;;16.30;99.90;;;15.95;100.00;100899.53;4921150;28;20216;-79
2022/05/18 01:31:58;;;;;;;104.40;99.80;;;16.30;99.90;;;16.18;100.00;100927.88;4974161;28;20228;-78
2022/05/18 01:34:31;;;;;;;105.53;100.85;;;16.20;99.90;;;16.33;100.00;100950.00;4957572;28;20216;-79
2022/05/18 01:36:59;;;;;;;101.32;96.95;;;16.20;99.90;;;16.48;100.00;100946.34;4973813;28;20231;-78
2022/05/18 01:39:58;;;;;;;98.40;94.20;;;16.30;99.90;;;16.50;100.00;100954.34;4974546;28;20229;-78
2022/05/18 01:42:37;;;;;;;91.95;88.18;;;16.30;99.90;;;16.51;100.00;100950.78;4972690;28;20205;-78
2022/05/18 01:45:06;;;;;;;104.13;98.97;;;16.30;99.90;;;16.51;100.00;100954.34;4970479;28;20673;-79
2022/05/18 01:47:37;;;;;;;105.32;98.05;;;16.30;99.90;;;16.41;100.00;100959.75;4973309;28;20252;-81
2022/05/18 01:50:14;;;;;;;88.60;84.60;;;16.30;99.90;;;16.48;100.00;100965.03;4972896;28;20212;-81
2022/05/18 01:52:42;;;;;;;100.40;95.38;;;16.40;99.90;;;16.42;100.00;100974.88;4957024;28;20213;-78
2022/05/18 01:55:10;;;;;;;93.25;89.07;;;16.30;99.90;;;16.41;100.00;100967.75;4973361;28;20210;-79
2022/05/18 01:57:38;;;;;;;89.95;86.15;;;16.30;99.90;;;16.56;100.00;100981.00;4974010;28;20229;-79
2022/05/18 02:00:07;;;;;;;85.78;82.25;;;16.30;99.90;;;16.44;100.00;100975.75;4971986;28;20201;-79
2022/05/18 02:02:41;;;;;;;86.95;82.60;;;16.30;99.90;;;16.53;100.00;100983.69;4971714;28;20205;-78
2022/05/18 02:05:10;;;;;;;95.00;90.22;;;16.20;99.90;;;16.69;100.00;100984.53;4975880;28;20216;-79
2022/05/18 02:07:38;;;;;;;87.75;83.55;;;16.30;99.90;;;16.40;100.00;100980.22;4968474;28;20239;-78
2022/05/18 02:10:08;;;;;;;87.35;83.28;;;16.30;99.90;;;16.32;100.00;100976.72;4966938;28;20225;-78
2022/05/18 02:12:36;;;;;;;89.45;85.35;;;16.30;99.90;;;16.11;100.00;100982.16;4964133;28;20209;-79
2022/05/18 02:15:05;;;;;;;97.18;92.90;;;16.30;99.90;;;16.10;100.00;100991.97;4965832;28;20220;-78
2022/05/18 02:17:35;;;;;;;96.70;92.65;;;16.10;99.90;;;16.33;100.00;101003.41;4951909;28;20233;-80
2022/05/18 02:20:05;;;;;;;85.22;81.85;;;16.20;99.90;;;16.38;100.00;101006.03;4965739;28;20213;-78
2022/05/18 02:22:33;;;;;;;78.00;74.63;;;16.20;99.90;;;16.44;100.00;101016.69;4972314;28;20216;-80
2022/05/18 02:25:01;;;;;;;93.45;88.20;;;16.20;99.90;;;16.49;100.00;100997.97;4969296;28;20213;-79
2022/05/18 02:27:30;;;;;;;78.80;75.53;;;16.20;99.90;;;16.35;100.00;100997.16;4965902;28;20233;-78
2022/05/18 02:29:57;;;;;;;84.40;80.97;;;16.20;99.90;;;16.26;100.00;100998.09;4972903;28;20202;-78
2022/05/18 02:32:26;;;;;;;83.60;79.55;;;16.20;99.90;;;16.17;100.00;100996.38;4957316;28;20212;-78
2022/05/18 02:34:54;;;;;;;85.07;80.88;;;16.20;99.90;;;16.15;100.00;100997.28;4971919;28;20217;-79
2022/05/18 02:37:22;;;;;;;96.68;92.43;;;16.10;99.90;;;16.06;100.00;101002.66;4972985;28;20240;-78
2022/05/18 02:39:50;;;;;;;80.32;75.70;;;16.10;99.90;;;15.90;100.00;100989.38;4970484;28;20217;-78
2022/05/18 02:42:18;;;;;;;74.35;71.10;;;16.10;99.90;;;15.74;100.00;101001.00;4969091;28;20216;-78
2022/05/18 02:44:48;;;;;;;73.80;70.55;;;15.90;99.90;;;15.68;100.00;101004.56;4954765;28;20212;-79
2022/05/18 02:47:17;;;;;;;68.22;65.22;;;15.90;99.90;;;15.78;100.00;101018.75;4958849;28;20240;-78
2022/05/18 02:49:46;;;;;;;81.10;77.00;;;15.80;99.90;;;15.91;100.00;101032.94;4973459;28;20213;-79
2022/05/18 02:52:14;;;;;;;69.10;66.30;;;15.80;99.90;;;15.95;100.00;101037.38;4973106;28;20210;-78
2022/05/18 02:57:30;;;;;;;75.53;71.93;;;15.90;99.90;;;16.29;100.00;101071.03;4969318;28;20217;-79
2022/05/18 02:59:58;;;;;;;83.65;79.63;;;15.90;99.90;;;16.15;100.00;101042.63;4972384;28;20575;-79
2022/05/18 03:02:26;;;;;;;79.80;75.47;;;16.00;99.90;;;16.02;100.00;101043.56;4952473;28;20579;-79
2022/05/18 03:04:54;;;;;;;91.63;86.65;;;16.00;99.90;;;16.09;100.00;101042.66;4968139;28;20220;-78
2022/05/18 03:07:22;;;;;;;75.07;71.75;;;15.90;99.90;;;15.99;100.00;101037.34;4948234;28;20255;-79
2022/05/18 03:09:51;;;;;;;81.03;77.05;;;15.90;99.90;;;15.98;100.00;101050.69;4967236;28;20216;-79
2022/05/18 03:12:19;;;;;;;72.93;69.75;;;15.80;99.90;;;15.92;100.00;101046.28;4971809;28;20587;-78
2022/05/18 03:14:46;;;;;;;80.72;76.90;;;15.80;99.90;;;15.87;100.00;101060.50;4971538;28;20217;-78
2022/05/18 03:17:15;;;;;;;81.57;77.20;;;15.80;99.90;;;15.88;100.00;101060.50;4962791;28;20732;-79
2022/05/18 03:19:43;;;;;;;72.13;69.05;;;15.80;99.90;;;15.67;100.00;101058.78;4971414;28;20713;-78
2022/05/18 03:24:57;;;;;;;96.28;91.63;;;15.70;99.90;;;15.58;100.00;101068.53;4971661;28;20674;-78
2022/05/18 03:27:25;;;;;;;85.18;81.72;;;15.70;99.90;;;15.53;100.00;101089.84;4971120;28;20233;-78
2022/05/18 03:29:53;;;;;;;88.80;84.93;;;15.60;99.90;;;15.55;100.00;101082.72;4971826;28;20216;-78
2022/05/18 03:32:22;;;;;;;76.75;73.75;;;15.60;99.90;;;15.54;100.00;101094.28;4973517;28;20204;-78
2022/05/18 03:34:51;;;;;;;83.07;79.72;;;15.60;99.90;;;15.46;100.00;101106.72;4972622;28;20214;-79
2022/05/18 03:37:19;;;;;;;78.55;75.35;;;15.50;99.90;;;15.54;100.00;101112.94;4972744;28;20255;-80
2022/05/18 03:39:47;;;;;;;88.68;84.72;;;15.50;99.90;;;15.25;100.00;101122.72;4972151;28;20220;-80
2022/05/18 03:42:15;;;;;;;87.97;84.00;;;15.40;99.90;;;15.23;100.00;101140.47;4955678;28;20214;-78
2022/05/18 03:44:42;;;;;;;80.45;76.75;;;15.40;99.90;;;15.25;100.00;101142.25;4967376;28;20201;-78
2022/05/18 03:47:10;;;;;;;80.72;76.75;;;15.40;99.90;;;15.32;100.00;101153.81;4969564;28;20714;-79
2022/05/18 03:49:38;;;;;;;89.88;86.03;;;15.40;99.90;;;15.38;100.00;101153.81;4971200;28;20209;-78
2022/05/18 03:52:07;;;;;;;87.10;82.85;;;15.30;99.90;;;15.05;100.00;101155.53;4972476;28;20220;-78
2022/05/18 03:54:37;;;;;;;101.78;97.40;;;15.30;99.90;;;15.04;100.00;101163.53;4953857;28;20205;-78
2022/05/18 03:57:08;;;;;;;99.20;94.60;;;15.20;99.90;;;14.93;100.00;101171.50;4970389;28;20229;-78
2022/05/18 03:59:36;;;;;;;107.45;103.07;;;15.20;99.90;;;15.26;100.00;101192.00;4971586;28;20236;-78
2022/05/18 04:02:04;;;;;;;103.55;98.18;;;15.20;99.90;;;15.12;100.00;101171.53;4965344;28;20210;-79
2022/05/18 04:04:32;;;;;;;101.10;96.85;;;15.20;99.90;;;15.14;100.00;101172.44;4972302;28;20677;-78
2022/05/18 04:07:00;;;;;;;100.63;95.68;;;15.20;99.90;;;14.84;100.00;101179.47;4971217;28;20233;-78
2022/05/18 04:09:28;;;;;;;98.13;92.93;;;15.10;99.90;;;14.92;100.00;101193.69;4968562;28;20206;-78
2022/05/18 04:11:56;;;;;;;108.18;102.68;;;15.10;99.90;;;14.95;100.00;101185.72;4951823;28;20212;-79
2022/05/18 04:14:24;;;;;;;102.05;97.22;;;15.10;99.90;;;15.09;100.00;101183.06;4967486;28;20205;-80
2022/05/18 04:16:52;;;;;;;108.28;102.85;;;15.10;99.90;;;15.14;100.00;101189.31;4959300;28;20237;-79
2022/05/18 04:19:20;;;;;;;103.30;98.13;;;15.10;99.90;;;15.14;100.00;101191.97;4962823;28;20553;-78
2022/05/18 04:21:48;;;;;;;117.38;110.93;;;15.10;99.90;;;15.18;100.00;101180.44;4968182;28;20205;-78
2022/05/18 04:24:16;;;;;;;119.32;113.45;;;15.10;99.90;;;15.21;100.00;101193.75;4948748;28;20205;-79
2022/05/18 04:26:44;;;;;;;115.97;110.15;;;15.20;99.90;;;15.24;100.00;101212.41;4964241;28;20241;-79
2022/05/18 04:29:12;;;;;;;127.22;121.32;;;15.10;99.90;;;15.32;100.00;101207.09;4946450;28;20213;-78
2022/05/18 04:31:41;;;;;;;116.72;111.85;;;15.20;99.90;;;15.43;100.00;101200.03;4970276;28;20224;-79
2022/05/18 04:34:09;;;;;;;120.30;114.70;;;15.20;99.90;;;15.51;100.00;101192.03;4949690;28;20214;-78
2022/05/18 04:36:37;;;;;;;120.93;114.72;;;15.30;99.90;;;15.53;100.00;101209.81;4966871;28;20221;-79
2022/05/18 04:39:05;;;;;;;115.75;110.65;;;15.30;99.90;;;15.58;100.00;101224.06;4948003;29;20213;-80
2022/05/18 04:41:33;;;;;;;125.65;119.72;;;15.40;99.90;;;15.69;100.00;101232.09;4967432;28;20228;-81
2022/05/18 04:44:03;;;;;;;127.50;120.70;;;15.40;99.90;;;15.69;100.00;101210.78;4950901;28;20205;-79
2022/05/18 04:46:31;;;;;;;130.27;123.72;;;;;;;15.63;100.00;101219.66;4967323;28;20741;-81
2022/05/18 04:48:59;;;;;;;134.23;127.65;;;15.50;99.90;;;15.68;100.00;101215.22;4967593;28;20225;-79
2022/05/18 04:51:27;;;;;;;138.38;131.82;;;15.50;99.90;;;15.89;100.00;101205.44;4969560;28;20226;-80
2022/05/18 04:53:55;;;;;;;141.63;134.32;;;15.50;99.90;;;15.98;100.00;101211.66;4968147;28;20306;-78
2022/05/18 04:56:24;;;;;;;146.02;140.00;;;15.60;99.90;;;16.10;100.00;101225.88;4967483;28;20228;-79
2022/05/18 04:58:53;;;;;;;136.65;130.45;;;15.70;99.90;;;16.11;100.00;101225.88;4967508;28;20213;-78
2022/05/18 05:01:21;;;;;;;142.55;136.13;;;15.70;99.90;;;16.23;100.00;101246.31;4966823;28;20280;-80
2022/05/18 05:03:49;;;;;;;153.98;146.68;;;15.80;99.90;;;16.31;100.00;101260.53;4970084;28;20659;-78
2022/05/18 05:06:17;;;;;;;145.75;138.88;;;15.90;99.90;;;16.39;100.00;101277.44;4968863;28;20241;-80
2022/05/18 05:08:45;;;;;;;127.63;122.68;;;15.90;99.90;;;16.56;100.00;101277.41;4968951;28;20244;-78
2022/05/18 05:11:13;;;;;;;126.50;121.20;;;15.90;99.90;;;16.68;100.00;101274.75;4972463;28;20217;-79
2022/05/18 05:13:41;;;;;;;146.25;139.50;;;16.00;99.90;;;16.71;100.00;101280.09;4973073;28;20213;-79
2022/05/18 05:16:11;;;;;;;148.15;141.35;;;16.10;99.90;;;16.82;100.00;101285.38;4968874;28;20225;-78
2022/05/18 05:18:39;;;;;;;149.48;142.73;;;16.20;99.90;;;16.86;100.00;101279.16;4969571;28;20212;-78
2022/05/18 05:21:07;;;;;;;160.40;152.68;;;16.30;99.90;;;16.98;100.00;101299.63;4969656;28;20206;-78
2022/05/18 05:23:35;;;;;;;154.85;147.77;;;16.40;99.90;;;17.02;100.00;101299.59;4966431;28;20213;-80
2022/05/18 05:26:03;;;;;;;151.23;144.93;;;16.40;99.90;;;17.19;100.00;101304.88;4974255;28;20236;-80
2022/05/18 05:28:31;;;;;;;158.32;151.40;;;16.50;99.90;;;17.36;100.00;101311.03;4971084;28;20236;-79
2022/05/18 05:31:06;;;;;;;145.77;139.13;;;16.50;99.90;;;17.47;100.00;101290.47;4974090;28;20215;-79
2022/05/18 05:33:36;;;;;;;149.57;142.65;;;16.60;99.90;;;17.60;100.00;101286.84;4964125;28;20239;-80
2022/05/18 05:36:06;;;;;;;147.88;141.23;;;16.70;99.90;;;17.78;100.00;101295.69;4969512;28;20229;-79
2022/05/18 05:38:34;;;;;;;148.45;141.30;;;16.80;99.90;;;17.82;100.00;101281.38;4960771;28;20213;-79
2022/05/18 05:41:02;;;;;;;155.65;147.80;;;16.80;99.90;;;17.80;100.00;101285.84;4955942;28;20224;-79
2022/05/18 05:43:31;;;;;;;144.60;137.75;;;17.00;99.90;;;17.92;100.00;101299.13;4963029;28;20213;-79
2022/05/18 05:46:05;;;;;;;139.70;133.48;;;17.10;99.90;;;18.11;100.00;101307.91;4968661;28;20227;-79
2022/05/18 05:48:35;;;;;;;151.00;143.95;;;17.20;99.90;;;18.17;100.00;101291.81;4962533;28;20220;-78
2022/05/18 05:51:04;;;;;;;139.48;133.05;;;17.30;99.90;;;18.27;100.00;101288.19;4953874;28;20197;-79
2022/05/18 05:53:32;;;;;;;151.52;144.65;;;17.40;99.90;;;18.31;100.00;101270.28;4973842;28;20209;-79
2022/05/18 05:56:02;;;;;;;141.98;135.52;;;17.50;99.90;;;18.47;100.00;101239.78;4944891;29;20244;-79
2022/05/18 05:58:33;;;;;;;142.88;136.90;;;17.60;99.90;;;18.55;100.00;101243.25;4972412;28;20212;-78
2022/05/18 06:01:06;;;;;;;147.75;140.77;;;17.70;99.90;;;18.72;100.00;101235.06;4972905;28;20210;-80
2022/05/18 06:03:35;;;;;;;162.35;154.30;;;17.80;99.90;;;18.91;100.00;101236.63;4972679;28;20211;-79
2022/05/18 06:06:04;;;;;;;152.35;143.52;;;18.00;99.90;;;19.09;100.00;101222.97;4971329;28;20232;-79
2022/05/18 06:08:32;;;;;;;130.20;123.82;;;18.10;99.90;;;19.21;100.00;101210.31;4974054;28;20241;-79
2022/05/18 06:11:01;;;;;;;132.73;126.60;;;18.30;99.90;;;19.23;100.00;101200.44;4972697;28;20212;-79
2022/05/18 06:13:29;;;;;;;140.60;134.52;;;18.40;99.90;;;19.31;100.00;101169.03;4956810;28;20213;-78
2022/05/18 06:15:58;;;;;;;136.57;130.25;;;18.50;99.90;;;19.43;100.00;101161.69;4972550;28;20233;-79
2022/05/18 06:18:26;;;;;;;136.20;129.40;;;18.60;99.90;;;19.75;100.00;101163.00;4971451;28;20209;-80
2022/05/18 06:20:54;;;;;;;137.85;132.15;;;18.80;99.90;;;19.91;100.00;101159.16;4972912;28;20233;-79
2022/05/18 06:23:22;;;;;;;119.80;114.05;;;19.00;99.90;;;20.10;100.00;101146.28;4975137;28;20221;-79
2022/05/18 06:25:50;;;;;;;111.70;106.93;;;19.10;99.90;;;19.94;100.00;101124.19;4974993;28;20666;-80
2022/05/18 06:28:18;;;;;;;111.70;106.07;;;19.30;99.90;;;19.97;100.00;101126.81;4975487;28;20236;-80
2022/05/18 06:30:46;;;;;;;105.25;100.65;;;19.40;99.90;;;20.14;100.00;101156.03;4975840;28;20208;-79
2022/05/18 06:33:14;;;;;;;110.15;105.68;;;19.50;99.90;;;20.01;100.00;101131.22;4958418;28;20209;-79
2022/05/18 06:35:44;;;;;;;110.35;105.47;;;19.60;99.90;;;20.12;100.00;101149.81;4973892;28;20224;-80
2022/05/18 06:38:14;;;;;;;122.13;116.78;;;19.70;99.90;;;20.57;100.00;101172.25;4967485;28;20217;-80
2022/05/18 06:43:29;;;;;;;114.88;109.72;;;20.20;99.90;;;20.47;100.00;101073.03;4974811;28;20197;-79
2022/05/18 06:45:58;;;;;;;116.68;111.68;;;20.20;99.90;;;20.55;99.77;101068.38;4975825;28;20236;-80
2022/05/18 06:48:27;;;;;;;114.90;109.68;;;20.30;99.90;;;20.57;100.00;101080.88;4975280;28;20236;-80
2022/05/18 06:51:19;;;;;;;114.70;109.68;;;20.40;99.90;;;20.70;100.00;101071.63;4975756;28;20217;-79
2022/05/18 06:53:51;;;;;;;100.93;96.65;;;20.50;99.90;;;20.94;98.48;101067.50;4976487;28;20197;-79
2022/05/18 06:56:27;;;;;;;103.07;98.53;;;20.90;99.90;;;21.18;96.80;101040.94;4968277;28;20232;-80
2022/05/18 06:58:56;;;;;;;90.07;86.20;;;20.90;99.90;;;20.89;98.08;101004.91;4970763;28;20205;-80
2022/05/18 07:01:26;;;;;;;93.68;89.38;;;21.00;99.90;;;21.55;97.40;101059.75;4958942;28;20209;-79
2022/05/18 07:03:56;;;;;;;79.05;75.30;;;21.10;99.90;;;21.88;95.17;101034.59;4973828;28;20588;-79
2022/05/18 07:06:39;;;;;;;61.83;56.95;;;21.50;99.90;;;21.32;94.06;100964.38;4969701;28;20245;-79
2022/05/18 07:09:13;;;;;;;72.13;68.25;;;21.80;99.90;;;21.79;93.10;100996.28;4980702;28;20237;-79
2022/05/18 07:11:43;;;;;;;59.97;57.28;;;21.80;99.90;;;21.57;92.70;100956.50;4957989;28;20204;-79
2022/05/18 07:14:13;;;;;;;51.65;49.25;;;21.80;99.90;;;22.01;93.01;101006.41;4978021;28;20205;-79
2022/05/18 07:16:42;;;;;;;49.70;47.40;;;22.10;99.90;;;21.73;95.14;100973.13;4985190;28;20231;-79
2022/05/18 07:19:20;;;;;;;41.55;39.50;;;22.10;99.90;;;21.74;95.54;100982.94;4965335;28;20215;-80
2022/05/18 07:21:48;;;;;;;45.72;43.35;;;22.10;99.90;;;22.62;91.15;100998.31;4974171;28;20197;-79
2022/05/18 07:24:17;;;;;;;32.60;30.88;;;22.40;99.90;;;22.08;90.92;100929.03;4973283;28;20213;-79
2022/05/18 07:26:45;;;;;;;35.88;34.30;;;22.60;99.90;;;22.72;90.92;100994.41;4970313;28;20227;-79
2022/05/18 07:29:16;;;;;;;32.83;30.77;;;22.60;99.90;;;22.83;90.45;100965.31;4973160;28;20229;-78
2022/05/18 07:34:36;;;;;;;39.22;36.08;;;22.90;99.90;;;22.41;92.38;100926.22;4974176;28;20216;-78
2022/05/18 07:37:06;;;;;;;31.13;29.58;;;23.00;99.90;;;23.37;92.58;101025.56;4958073;28;20583;-78
2022/05/18 07:39:34;;;;;;;38.90;36.63;;;23.40;99.90;;;23.72;88.64;100964.97;4985685;28;20223;-80
2022/05/18 07:42:05;;;;;;;35.50;33.65;;;23.80;99.90;;;22.88;90.78;100895.03;4975821;28;20208;-80
2022/05/18 07:44:35;;;;;;;26.75;25.02;;;23.70;99.90;;;23.60;88.81;100947.41;4981880;28;20208;-79
2022/05/18 07:47:05;;;;;;;44.15;41.53;;;24.00;99.90;;;24.50;90.97;101012.41;4964907;28;20233;-82
2022/05/18 07:49:38;;;;;;;30.42;28.63;;;24.30;99.90;;;22.78;88.01;100791.09;4974868;28;20255;-82
2022/05/18 07:52:07;;;;;;;40.22;38.10;;;24.10;99.90;;;23.25;89.96;100876.63;4980196;28;20201;-81
2022/05/18 07:54:36;;;;;;;51.47;48.95;;;24.00;99.90;;;24.48;88.78;100973.75;4961685;28;20219;-82
2022/05/18 07:57:08;;;;;;;68.20;64.75;;;24.40;99.90;;;25.33;86.64;100980.19;4979055;28;20227;-82
2022/05/18 07:59:36;;;;;;;53.25;50.28;;;25.00;99.90;;;24.12;82.89;100765.25;4979222;28;20228;-82
2022/05/18 08:02:04;;;;;;;57.58;54.17;;;25.10;99.90;;;23.54;85.71;100732.53;4978874;28;20216;-81
2022/05/18 08:04:33;;;;;;;47.63;45.22;;;25.20;99.90;;;23.05;87.72;100729.91;4998323;28;20226;-82
2022/05/18 08:07:01;;;;;;;61.60;58.38;;;24.80;99.90;;;23.48;87.69;100791.25;4999456;28;20220;-82
2022/05/18 08:09:29;;;;;;;51.10;48.58;;;24.80;99.90;;;23.55;87.13;100799.06;4985062;28;20239;-82
2022/05/18 08:17:30;;;;;;;48.17;45.85;;;25.00;99.90;;;23.62;85.21;100753.81;4977318;28;20247;-82
2022/05/18 08:19:58;;;;;;;47.50;44.90;;;24.50;99.90;;;24.34;84.85;100824.75;4977682;28;20212;-81
2022/05/18 08:22:27;;;;;;;58.67;55.80;;;24.60;99.90;;;25.36;82.96;100863.63;4978111;28;20212;-81
2022/05/18 08:24:55;;;;;;;68.13;64.47;;;25.20;99.90;;;25.33;80.70;100778.94;4977200;28;20219;-82
2022/05/18 08:27:23;;;;;;;55.40;52.47;;;25.90;99.90;;;25.01;79.80;100710.94;4978833;28;20220;-82
2022/05/18 08:29:59;;;;;;;60.10;56.70;;;26.20;99.90;;;25.11;81.72;100765.53;4995708;28;20243;-82
2022/05/18 08:32:27;;;;;;;44.15;41.78;;;25.90;99.90;;;23.58;83.22;100571.28;4977305;28;20212;-82
2022/05/18 08:34:55;;;;;;;59.67;56.28;;;25.70;99.90;;;24.58;82.66;100722.78;4976221;28;20211;-82
2022/05/18 08:37:23;;;;;;;59.92;57.03;;;25.60;99.90;;;25.59;80.46;100781.31;4976865;28;20231;-82
2022/05/18 08:39:52;;;;;;;54.70;52.10;;;26.20;99.90;;;25.91;77.95;100755.41;4977734;28;20205;-82
2022/05/18 08:42:20;;;;;;;48.58;46.00;;;26.60;99.90;;;25.78;79.22;100719.91;4975951;28;20207;-82
2022/05/18 08:44:50;;;;;;;70.75;67.15;;;27.10;99.90;;;25.56;78.97;100675.84;4958412;28;20209;-82
2022/05/18 08:47:43;;;;;;;129.57;122.95;;;27.40;99.90;;;25.97;78.74;100700.03;4957496;28;20232;-82
2022/05/18 08:50:19;;;;;;;200.68;189.55;;;27.60;99.90;;;25.87;82.08;100709.56;4975156;28;20239;-83
2022/05/18 08:53:15;;;;;;;263.30;249.15;;;27.70;99.90;;;25.94;79.51;100695.63;4977082;28;20216;-82
2022/05/18 08:56:01;;;;;;;206.27;195.05;;;27.50;99.90;;;25.44;80.06;100622.28;4956529;28;20562;-82
2022/05/18 08:58:29;;;;;;;222.65;210.30;;;27.50;99.90;;;26.43;80.29;100752.84;4942685;28;20216;-83
2022/05/18 09:01:02;;;;;;;385.92;364.13;;;27.70;99.90;;;27.06;77.96;100737.72;4982243;28;20586;-82
2022/05/18 09:03:47;;;;;;;411.52;387.88;;;28.10;99.90;;;26.92;78.17;100677.84;4968231;28;20207;-82
2022/05/18 09:06:41;;;;;;;323.17;305.00;;;28.50;99.90;;;26.25;78.91;100616.34;4982886;28;20223;-82
2022/05/18 09:12:05;;;;;;;343.77;323.88;;;28.40;99.90;;;26.31;74.33;100531.09;4958341;28;20206;-82
2022/05/18 09:14:37;;;;;;;469.33;441.95;;;28.50;99.90;;;27.22;75.19;100640.00;4959671;29;20209;-82
2022/05/18 09:17:11;;;;;;;333.13;314.10;;;28.70;99.90;;;27.12;75.24;100608.91;4953820;28;20239;-83
2022/05/18 09:20:03;;;;;;;330.52;312.00;;;28.70;99.90;;;26.77;74.86;100537.59;4960098;28;20204;-82
2022/05/18 09:23:22;;;;;;;408.50;384.65;;;28.70;99.90;;;26.96;74.78;100557.28;4959559;28;20217;-82
2022/05/18 09:26:36;;;;;;;231.70;218.80;;;29.10;99.90;;;27.51;71.53;100567.75;4934844;28;20220;-82
2022/05/18 09:29:11;;;;;;;225.57;212.88;;;29.20;99.90;;;27.48;71.60;100474.69;4977638;28;20216;-82
2022/05/18 09:32:31;;;;;;;313.50;295.48;;;29.50;99.90;;;27.18;72.20;100450.22;4977828;28;20726;-82
2022/05/18 09:35:37;;;;;;;311.58;292.35;;;29.60;99.90;;;28.01;71.43;100536.66;4976529;28;20220;-82
2022/05/18 09:38:23;;;;;;;717.47;672.88;;;30.60;99.90;;;29.59;70.56;100635.44;4967749;28;20262;-82
2022/05/18 09:40:51;;;;;;;621.38;582.80;;;31.20;99.90;;;30.41;70.61;100637.13;4951151;28;20217;-82
2022/05/18 09:43:54;;;;;;;510.83;479.50;;;31.50;99.90;;;28.05;71.47;100413.16;4975978;28;20220;-80
2022/05/18 09:46:26;;;;;;;611.53;572.95;;;31.50;99.90;;;28.82;71.22;100502.50;4959359;28;20231;-80
2022/05/18 09:49:14;;;;;;;283.85;267.05;;;31.50;99.90;;;27.45;71.66;100358.09;4960522;28;20220;-80
2022/05/18 09:51:45;;;;;;;517.70;485.55;;;30.00;99.90;;;27.99;71.71;100430.75;4968227;28;20224;-81
2022/05/18 09:54:13;;;;;;;360.30;338.30;;;30.40;99.90;;;28.89;72.01;100524.78;4966342;28;20201;-81
2022/05/18 09:56:53;;;;;;;457.60;429.17;;;30.50;99.90;;;28.62;68.11;100367.75;4959432;28;20708;-82
2022/05/18 09:59:28;;;;;;;455.30;427.25;;;30.70;99.90;;;28.33;72.03;100409.56;4958987;28;20205;-81
2022/05/18 10:07:51;;;;;;;888.20;832.67;;;31.40;99.90;;;29.78;68.31;100451.53;4967832;28;20239;-82
2022/05/18 10:10:38;;;;;;;767.30;718.58;;;31.80;99.90;;;29.35;68.62;100380.94;4975047;28;20243;-82
2022/05/18 10:13:12;;;;;;;971.25;911.40;;;32.30;99.90;;;30.32;68.89;100487.69;4965154;28;20212;-82
2022/05/18 10:16:18;;;;;;;884.28;828.45;;;32.60;99.90;;;29.99;65.67;100360.06;4961399;28;20232;-82
2022/05/18 10:18:57;;;;;;;517.15;484.42;;;32.40;99.90;;;29.57;66.85;100301.31;4966939;28;20205;-82
2022/05/18 10:21:55;;;;;;;415.95;389.83;;;32.20;99.90;;;29.20;66.10;100229.50;4958871;28;20570;-82
2022/05/18 10:24:35;;;;;;;544.95;510.23;;;31.90;99.90;;;29.77;66.40;100273.47;4958953;28;20235;-81
2022/05/18 10:27:12;;;;;;;591.63;553.78;;;31.50;99.90;;;29.19;65.62;100185.06;4958041;28;20224;-82
2022/05/18 10:30:08;;;;;;;611.13;572.03;;;30.90;99.90;;;28.86;64.95;100160.25;4975478;28;20720;-82
2022/05/18 10:33:20;;;;;;;652.88;610.38;;;30.90;99.90;;;29.77;64.95;100251.66;4968916;28;20216;-82
2022/05/18 10:35:54;;;;;;;461.63;431.83;;;30.90;99.90;;;29.65;64.32;100176.25;4972717;28;20216;-84
2022/05/18 10:38:30;;;;;;;601.22;562.75;;;30.80;99.90;;;29.67;64.81;100181.59;4972157;28;20564;-85